Terminal Aerodrome Forecast
Issued by NWS Cleveland, OH

Home | Current Version | Previous Version | Text Only | Print | Product List | Glossary Off
Versions: 1 2 3 4 5 6 7 8 9 10 11 12 13 14 15 16 17

000
FTUS41 KCLE 162335
TAFTOL
TAF
KTOL 162335Z 1700/1724 25008KT P6SM SCT020
     FM170200 24008KT P6SM BKN020 OVC040
      TEMPO 1702/1706 -SN BKN015
     FM171000 24006KT P6SM BKN035=

USA.gov is the U.S. government's official web portal to all federal, state and local government web resources and services.